Time;durP1;ratioP1;P1;durP2;ratioP2;P2;SDS_P1;SDS_P2;PMS_P1;PMS_P2;Temp;Humidity;BMP_temperature;BMP_pressure;BME280_temperature;BME280_humidity;BME280_pressure;Samples;Min_cycle;Max_cycle;Signal;HPM_P1;HPM_P2
2023/04/20 00:01:30;;;;;;;3.03;2.73;;;6.40;98.70;;;;;;5032062;28;20251;-69
2023/04/20 00:03:55;;;;;;;3.97;2.97;;;6.40;99.20;;;;;;5033520;28;20591;-69
2023/04/20 00:06:21;;;;;;;5.33;2.50;;;6.40;98.60;;;;;;5031784;28;20192;-69
2023/04/20 00:08:47;;;;;;;6.27;2.90;;;6.40;99.00;;;;;;5032970;28;20164;-70
2023/04/20 00:11:12;;;;;;;3.73;2.57;;;6.40;98.70;;;;;;5033036;28;20194;-70
2023/04/20 00:13:37;;;;;;;3.13;2.53;;;6.40;97.80;;;;;;5032765;28;20180;-69
2023/04/20 00:16:03;;;;;;;3.90;2.70;;;6.50;97.90;;;;;;5031552;28;20245;-70
2023/04/20 00:18:29;;;;;;;5.83;2.60;;;6.50;97.20;;;;;;5032766;28;20504;-70
2023/04/20 00:20:54;;;;;;;3.77;2.67;;;6.50;97.20;;;;;;5031507;28;20195;-70
2023/04/20 00:23:20;;;;;;;6.30;2.63;;;6.50;97.80;;;;;;5032893;28;20160;-69
2023/04/20 00:25:48;;;;;;;3.53;3.23;;;6.50;98.10;;;;;;5031576;28;20233;-70
2023/04/20 00:28:14;;;;;;;5.43;2.57;;;6.50;98.80;;;;;;5032552;28;20250;-70
2023/04/20 00:30:39;;;;;;;6.20;2.30;;;6.50;98.80;;;;;;5032846;28;20486;-69
2023/04/20 00:33:05;;;;;;;4.07;2.50;;;6.50;99.20;;;;;;5031437;28;20179;-69
2023/04/20 00:35:30;;;;;;;3.63;3.07;;;6.50;99.20;;;;;;5031374;28;20235;-70
2023/04/20 00:37:56;;;;;;;3.50;2.40;;;6.60;99.90;;;;;;5032006;28;20221;-70
2023/04/20 00:40:21;;;;;;;3.50;2.93;;;6.60;99.90;;;;;;5031182;28;20195;-71
2023/04/20 00:42:47;;;;;;;7.73;2.80;;;6.70;99.60;;;;;;5031311;28;20175;-69
2023/04/20 00:45:12;;;;;;;6.13;2.90;;;6.80;99.60;;;;;;5032539;28;20548;-70
2023/04/20 00:47:38;;;;;;;3.93;2.40;;;6.80;99.90;;;;;;5032170;28;20170;-69
2023/04/20 00:50:04;;;;;;;3.60;2.37;;;6.90;99.90;;;;;;5032449;28;20175;-69
2023/04/20 00:52:30;;;;;;;5.70;2.93;;;7.00;99.60;;;;;;5032400;28;20252;-69
2023/04/20 00:54:56;;;;;;;5.10;3.03;;;7.00;98.60;;;;;;5032309;28;20991;-70
2023/04/20 00:57:22;;;;;;;3.33;2.37;;;7.10;98.60;;;;;;5032002;28;20490;-69
2023/04/20 00:59:49;;;;;;;7.03;2.37;;;7.20;98.90;;;;;;5032224;28;20241;-69
2023/04/20 01:02:15;;;;;;;12.50;3.20;;;7.20;98.70;;;;;;5030702;28;20411;-69
2023/04/20 01:04:40;;;;;;;2.10;1.83;;;7.30;98.20;;;;;;5031909;28;20449;-70
2023/04/20 01:07:06;;;;;;;7.30;3.00;;;7.40;98.90;;;;;;5032049;28;20530;-69
2023/04/20 01:09:31;;;;;;;2.80;2.17;;;7.40;98.00;;;;;;5031926;28;20164;-69
2023/04/20 01:11:57;;;;;;;3.87;3.27;;;7.40;97.40;;;;;;5031590;28;20254;-70
2023/04/20 01:14:22;;;;;;;2.77;2.20;;;7.40;96.90;;;;;;5032048;28;20195;-71
2023/04/20 01:16:48;;;;;;;4.00;3.00;;;7.30;96.60;;;;;;5032090;28;20173;-69
2023/04/20 01:19:14;;;;;;;5.50;2.70;;;7.40;96.30;;;;;;5031657;28;20191;-69
2023/04/20 01:21:39;;;;;;;5.50;2.70;;;7.40;96.30;;;;;;5032274;28;20221;-70
2023/04/20 01:24:05;;;;;;;2.80;2.03;;;7.40;96.20;;;;;;5031764;28;20163;-70
2023/04/20 01:26:31;;;;;;;2.87;2.57;;;7.50;96.30;;;;;;5030882;28;20174;-70
2023/04/20 01:28:57;;;;;;;3.70;2.97;;;7.60;96.60;;;;;;5030240;28;20418;-69
2023/04/20 01:31:23;;;;;;;4.60;2.20;;;7.70;96.60;;;;;;5030521;28;20172;-71
2023/04/20 01:33:48;;;;;;;3.50;3.00;;;7.80;96.40;;;;;;5031809;28;20934;-69
2023/04/20 01:36:14;;;;;;;3.47;2.50;;;7.80;95.90;;;;;;5030634;28;20191;-69
2023/04/20 01:38:40;;;;;;;3.63;3.30;;;7.90;95.80;;;;;;5030330;28;20183;-70
2023/04/20 01:41:07;;;;;;;6.70;3.20;;;7.90;95.50;;;;;;5031900;28;20155;-70
2023/04/20 01:43:35;;;;;;;6.00;3.20;;;7.90;95.40;;;;;;5030560;28;20414;-71
2023/04/20 01:46:01;;;;;;;6.93;2.90;;;7.90;95.00;;;;;;5030508;28;20476;-69
2023/04/20 01:48:27;;;;;;;4.50;3.03;;;7.90;94.60;;;;;;5031424;28;20807;-69
2023/04/20 01:50:53;;;;;;;10.63;3.50;;;7.90;94.30;;;;;;5031809;28;20452;-70
2023/04/20 01:53:19;;;;;;;4.97;2.70;;;7.90;94.30;;;;;;5031835;28;20167;-70
2023/04/20 01:55:44;;;;;;;3.00;2.70;;;7.90;94.80;;;;;;5031598;28;20432;-70
2023/04/20 01:58:10;;;;;;;4.60;3.13;;;7.80;94.20;;;;;;5031397;28;20579;-71
2023/04/20 02:00:36;;;;;;;3.60;2.70;;;7.80;93.80;;;;;;5030312;28;20226;-70
2023/04/20 02:03:01;;;;;;;5.13;2.83;;;7.80;93.20;;;;;;5031692;28;20164;-70
2023/04/20 02:05:27;;;;;;;3.30;2.60;;;7.90;92.70;;;;;;5031522;28;20470;-70
2023/04/20 02:07:52;;;;;;;4.53;3.07;;;7.90;92.70;;;;;;5031261;28;20160;-70
2023/04/20 02:10:18;;;;;;;2.93;2.73;;;8.00;92.40;;;;;;5031558;28;20178;-71
2023/04/20 02:12:44;;;;;;;3.73;2.80;;;8.00;91.90;;;;;;5031539;28;20191;-70
2023/04/20 02:15:10;;;;;;;3.33;2.30;;;8.00;91.70;;;;;;5031480;28;20207;-70
2023/04/20 02:17:35;;;;;;;3.50;2.67;;;8.10;91.40;;;;;;5031212;28;20505;-70
2023/04/20 02:20:05;;;;;;;5.13;2.73;;;8.10;92.00;;;;;;5031392;28;20202;-70
2023/04/20 02:22:33;;;;;;;3.20;2.67;;;8.10;92.10;;;;;;5031481;28;20412;-70
2023/04/20 02:25:00;;;;;;;10.73;3.40;;;8.10;91.90;;;;;;5033259;28;20430;-69
2023/04/20 02:27:26;;;;;;;4.43;3.00;;;8.20;92.10;;;;;;5034887;28;20974;-70
2023/04/20 02:29:52;;;;;;;3.17;2.60;;;8.10;92.10;;;;;;5035029;28;20402;-70
2023/04/20 02:32:17;;;;;;;4.50;2.63;;;8.20;91.80;;;;;;5035008;28;20412;-69
2023/04/20 02:34:43;;;;;;;2.47;2.27;;;8.20;91.30;;;;;;5034790;28;20695;-70
2023/04/20 02:37:08;;;;;;;3.00;2.70;;;8.20;91.00;;;;;;5034503;28;20660;-69
2023/04/20 02:39:34;;;;;;;2.90;2.60;;;8.20;91.20;;;;;;5034719;28;20684;-69
2023/04/20 02:42:00;;;;;;;3.73;2.30;;;8.20;91.30;;;;;;5034731;28;20167;-70
2023/04/20 02:44:26;;;;;;;3.47;2.20;;;8.20;91.00;;;;;;5033478;28;20672;-70
2023/04/20 02:46:51;;;;;;;4.77;2.70;;;8.20;90.90;;;;;;5034316;28;20484;-70
2023/04/20 02:49:17;;;;;;;5.30;2.83;;;8.20;90.70;;;;;;5034656;28;20172;-70
2023/04/20 02:51:42;;;;;;;4.23;2.80;;;8.20;90.70;;;;;;5034630;28;20787;-72
2023/04/20 02:54:08;;;;;;;4.27;2.73;;;8.20;90.40;;;;;;5034657;28;20167;-72
2023/04/20 02:56:33;;;;;;;2.50;2.30;;;8.20;90.50;;;;;;5034628;28;20175;-71
2023/04/20 02:58:59;;;;;;;2.80;2.23;;;8.20;90.10;;;;;;5034152;28;20549;-69
2023/04/20 03:01:25;;;;;;;6.67;2.73;;;8.20;89.90;;;;;;5034149;28;20785;-71
2023/04/20 03:03:50;;;;;;;2.83;2.50;;;8.20;89.90;;;;;;5034456;28;20162;-72
2023/04/20 03:06:16;;;;;;;8.73;2.40;;;8.20;88.80;;;;;;5034261;28;20599;-71
2023/04/20 03:08:42;;;;;;;5.07;3.07;;;8.20;87.70;;;;;;5032690;28;20172;-71
2023/04/20 03:11:07;;;;;;;5.93;4.13;;;8.20;87.10;;;;;;5034281;28;20164;-71
2023/04/20 03:13:33;;;;;;;3.37;2.70;;;8.20;86.40;;;;;;5034403;28;20653;-71
2023/04/20 03:15:59;;;;;;;4.80;2.40;;;8.20;86.30;;;;;;5034065;28;20191;-71
2023/04/20 03:18:24;;;;;;;7.93;2.63;;;8.20;85.70;;;;;;5034223;28;20163;-71
2023/04/20 03:20:50;;;;;;;2.70;2.00;;;8.20;85.20;;;;;;5034032;28;20199;-70
2023/04/20 03:23:16;;;;;;;4.10;2.23;;;8.30;84.50;;;;;;5034092;28;20669;-70
2023/04/20 03:25:42;;;;;;;3.20;2.00;;;8.20;83.70;;;;;;5034068;28;20183;-69
2023/04/20 03:28:07;;;;;;;2.50;2.10;;;8.30;83.00;;;;;;5033754;28;20167;-71
2023/04/20 03:30:33;;;;;;;5.70;2.03;;;8.20;82.50;;;;;;5034042;28;20406;-70
2023/04/20 03:32:58;;;;;;;3.27;2.83;;;8.30;82.10;;;;;;5033822;28;20620;-71
2023/04/20 03:35:24;;;;;;;2.40;2.20;;;8.30;82.00;;;;;;5033414;28;20192;-70
2023/04/20 03:37:49;;;;;;;4.00;2.30;;;8.30;81.80;;;;;;5033517;28;20247;-70
2023/04/20 03:40:15;;;;;;;3.37;2.47;;;8.30;81.50;;;;;;5032502;28;20199;-71
2023/04/20 03:42:40;;;;;;;3.30;2.53;;;8.30;81.10;;;;;;5032589;28;20302;-70
2023/04/20 03:45:06;;;;;;;3.80;2.60;;;8.30;80.30;;;;;;5033432;28;20673;-72
2023/04/20 03:47:32;;;;;;;2.73;2.10;;;8.30;79.20;;;;;;5033206;28;20167;-71
2023/04/20 03:49:57;;;;;;;3.47;2.40;;;8.40;78.10;;;;;;5033609;28;20406;-71
2023/04/20 03:52:23;;;;;;;4.20;2.07;;;8.30;77.70;;;;;;5033451;28;20514;-70
2023/04/20 03:54:48;;;;;;;3.90;2.33;;;8.30;77.20;;;;;;5033491;28;20217;-72
2023/04/20 03:57:14;;;;;;;3.40;2.43;;;8.30;76.80;;;;;;5031817;28;20172;-71
2023/04/20 03:59:39;;;;;;;3.40;1.97;;;8.30;76.80;;;;;;5032117;28;20271;-71
2023/04/20 04:02:05;;;;;;;2.70;2.50;;;8.30;77.00;;;;;;5033409;28;20160;-71
2023/04/20 04:04:31;;;;;;;2.93;2.17;;;8.30;76.90;;;;;;5031581;28;20195;-71
2023/04/20 04:06:56;;;;;;;2.83;2.43;;;8.30;76.90;;;;;;5032777;28;20649;-72
2023/04/20 04:09:24;;;;;;;2.47;2.27;;;8.30;76.80;;;;;;5031806;28;20671;-69
2023/04/20 04:11:50;;;;;;;33.57;16.40;;;8.40;76.60;;;;;;5031806;28;20195;-70
2023/04/20 04:14:15;;;;;;;13.80;8.90;;;8.40;76.80;;;;;;5031411;28;20438;-70
2023/04/20 04:16:41;;;;;;;9.00;6.17;;;8.40;77.00;;;;;;5032908;28;20175;-70
2023/04/20 04:19:06;;;;;;;5.23;3.43;;;8.40;77.30;;;;;;5031402;28;20188;-71
2023/04/20 04:21:33;;;;;;;2.80;2.33;;;8.50;77.70;;;;;;5032998;28;20575;-71
2023/04/20 04:23:58;;;;;;;6.47;2.60;;;8.50;78.40;;;;;;5031637;28;20175;-71
2023/04/20 04:26:25;;;;;;;3.80;2.27;;;8.50;80.10;;;;;;5031538;28;20426;-71
2023/04/20 04:28:51;;;;;;;2.73;2.20;;;8.50;81.90;;;;;;5032454;28;20195;-71
2023/04/20 04:31:18;;;;;;;2.77;2.40;;;8.50;83.50;;;;;;5032783;28;20426;-72
2023/04/20 04:33:45;;;;;;;6.40;3.10;;;8.50;85.30;;;;;;5031248;28;20167;-72
2023/04/20 04:36:11;;;;;;;2.80;2.30;;;8.50;87.10;;;;;;5032658;28;20446;-72
2023/04/20 04:38:36;;;;;;;3.83;2.80;;;8.40;88.00;;;;;;5032356;28;20825;-71
2023/04/20 04:41:02;;;;;;;4.80;2.60;;;8.40;88.80;;;;;;5032402;28;20455;-70
2023/04/20 04:43:28;;;;;;;4.30;2.50;;;8.40;90.10;;;;;;5032387;28;20259;-70
2023/04/20 04:45:54;;;;;;;7.40;3.27;;;8.40;90.70;;;;;;5032361;28;20808;-71
2023/04/20 04:48:19;;;;;;;4.70;3.20;;;8.50;91.30;;;;;;5031477;28;20406;-71
2023/04/20 04:50:45;;;;;;;4.00;3.10;;;8.50;92.40;;;;;;5032260;28;20203;-71
2023/04/20 04:53:11;;;;;;;3.13;2.77;;;8.50;93.10;;;;;;5032335;28;20172;-71
2023/04/20 04:55:36;;;;;;;4.20;2.93;;;8.50;94.70;;;;;;5030892;28;20187;-70
2023/04/20 04:58:02;;;;;;;2.43;2.20;;;8.50;94.50;;;;;;5032016;28;20637;-70
2023/04/20 05:00:28;;;;;;;9.83;5.63;;;8.50;95.40;;;;;;5030874;28;20625;-71
2023/04/20 05:02:54;;;;;;;8.47;5.63;;;8.50;97.20;;;;;;5032284;28;20552;-72
2023/04/20 05:05:21;;;;;;;3.77;3.23;;;8.50;99.90;;;;;;5031679;28;20203;-72
2023/04/20 05:07:46;;;;;;;3.67;3.20;;;8.40;99.90;;;;;;5031804;28;20167;-70
2023/04/20 05:10:12;;;;;;;3.93;3.07;;;8.40;99.90;;;;;;5032189;28;20413;-72
2023/04/20 05:12:38;;;;;;;2.63;2.43;;;8.40;99.90;;;;;;5032019;28;20294;-72
2023/04/20 05:15:04;;;;;;;3.30;3.00;;;8.40;99.90;;;;;;5032039;28;20191;-72
2023/04/20 05:17:30;;;;;;;4.27;2.70;;;8.30;99.90;;;;;;5031877;28;20409;-71
2023/04/20 05:19:55;;;;;;;6.23;3.60;;;8.30;99.90;;;;;;5031941;28;20445;-72
2023/04/20 05:22:21;;;;;;;3.20;2.87;;;8.30;99.90;;;;;;5032034;28;20168;-70
2023/04/20 05:24:47;;;;;;;12.20;6.60;;;8.30;99.90;;;;;;5030724;28;20187;-70
2023/04/20 05:27:12;;;;;;;12.37;8.57;;;8.20;99.90;;;;;;5031477;28;20168;-70
2023/04/20 05:29:38;;;;;;;12.77;9.60;;;8.20;99.90;;;;;;5030508;28;20171;-70
2023/04/20 05:32:03;;;;;;;3.33;3.03;;;8.20;99.90;;;;;;5031782;28;20170;-72
2023/04/20 05:34:29;;;;;;;3.70;3.40;;;8.10;99.90;;;;;;5031726;28;20187;-72
2023/04/20 05:36:57;;;;;;;3.90;3.40;;;8.10;99.90;;;;;;5031594;28;20406;-72
2023/04/20 05:39:22;;;;;;;6.63;3.83;;;7.90;99.90;;;;;;5030082;28;20540;-72
2023/04/20 05:41:48;;;;;;;3.77;3.47;;;7.80;99.90;;;;;;5031728;28;20960;-71
2023/04/20 05:44:13;;;;;;;5.63;3.47;;;7.70;99.90;;;;;;5030674;28;20191;-72
2023/04/20 05:46:39;;;;;;;5.30;4.07;;;7.80;99.90;;;;;;5030578;28;20206;-71
2023/04/20 05:49:05;;;;;;;6.30;3.67;;;7.80;99.90;;;;;;5030262;28;20262;-70
2023/04/20 05:51:32;;;;;;;3.60;3.30;;;7.80;99.90;;;;;;5031846;28;20556;-71
2023/04/20 05:54:01;;;;;;;4.37;3.97;;;7.90;99.90;;;;;;5031810;28;20163;-71
2023/04/20 05:56:27;;;;;;;7.43;3.13;;;8.00;99.90;;;;;;5031677;28;20446;-72
2023/04/20 05:58:54;;;;;;;4.63;3.90;;;8.10;99.90;;;;;;5033203;28;20437;-72
2023/04/20 06:01:20;;;;;;;3.70;3.30;;;8.20;99.90;;;;;;5034379;28;20547;-72
2023/04/20 06:03:48;;;;;;;6.93;4.10;;;8.30;99.90;;;;;;5034257;28;20410;-71
2023/04/20 06:06:14;;;;;;;5.90;3.23;;;8.50;99.90;;;;;;5034145;28;20188;-70
2023/04/20 06:08:41;;;;;;;5.70;3.63;;;8.50;99.90;;;;;;5035191;28;20845;-71
2023/04/20 06:11:06;;;;;;;3.67;2.70;;;8.60;99.90;;;;;;5034114;28;20415;-73
2023/04/20 06:13:32;;;;;;;4.07;3.67;;;8.70;99.90;;;;;;5035385;28;20432;-73
2023/04/20 06:15:57;;;;;;;9.23;3.47;;;8.80;99.90;;;;;;5035311;28;20191;-70
2023/04/20 06:18:23;;;;;;;5.03;3.27;;;8.90;99.90;;;;;;5035052;28;20195;-73
2023/04/20 06:20:48;;;;;;;4.57;2.83;;;8.90;99.90;;;;;;5035317;28;20668;-73
2023/04/20 06:23:14;;;;;;;4.30;3.23;;;9.00;99.90;;;;;;5033924;28;20194;-70
2023/04/20 06:25:40;;;;;;;7.50;5.27;;;9.20;99.90;;;;;;5033850;28;20238;-70
2023/04/20 06:28:06;;;;;;;4.00;2.87;;;9.40;99.90;;;;;;5033807;28;20330;-70
2023/04/20 06:30:35;;;;;;;4.23;3.20;;;9.50;99.90;;;;;;5035001;28;20175;-71
2023/04/20 06:33:01;;;;;;;4.70;3.60;;;9.60;99.90;;;;;;5033725;28;20202;-72
2023/04/20 06:35:27;;;;;;;3.60;2.73;;;9.70;99.90;;;;;;5035003;28;20838;-71
2023/04/20 06:37:56;;;;;;;4.07;3.70;;;9.70;99.90;;;;;;5034616;28;20438;-72
2023/04/20 06:40:22;;;;;;;4.60;3.30;;;9.70;99.90;;;;;;5033680;28;20199;-72
2023/04/20 06:42:47;;;;;;;3.10;2.80;;;9.60;99.90;;;;;;5034736;28;20414;-73
2023/04/20 06:45:13;;;;;;;5.97;3.70;;;9.60;99.90;;;;;;5034826;28;20418;-72
2023/04/20 06:47:38;;;;;;;3.80;3.17;;;9.60;99.90;;;;;;5034483;28;20484;-72
2023/04/20 06:50:08;;;;;;;7.23;4.20;;;9.50;99.90;;;;;;5033536;28;20636;-73
2023/04/20 06:52:35;;;;;;;4.10;3.70;;;9.50;99.90;;;;;;5034537;28;20175;-72
2023/04/20 06:55:01;;;;;;;3.87;3.17;;;9.50;99.90;;;;;;5034865;28;20468;-70
2023/04/20 06:57:26;;;;;;;8.00;4.13;;;9.50;99.90;;;;;;5034384;28;20438;-73
2023/04/20 06:59:52;;;;;;;4.97;3.37;;;9.50;99.90;;;;;;5034498;28;20564;-73
2023/04/20 07:02:17;;;;;;;2.60;2.40;;;9.50;99.90;;;;;;5034395;28;20171;-73
2023/04/20 07:04:43;;;;;;;3.50;3.20;;;9.50;99.90;;;;;;5034462;28;20190;-71
2023/04/20 07:07:08;;;;;;;4.03;3.60;;;9.50;99.90;;;;;;5034058;28;20173;-72
2023/04/20 07:09:34;;;;;;;6.60;3.20;;;9.50;99.90;;;;;;5032590;28;20230;-71
2023/04/20 07:12:00;;;;;;;4.40;3.60;;;9.60;99.90;;;;;;5034048;28;20171;-71
2023/04/20 07:14:25;;;;;;;5.57;4.10;;;9.60;99.90;;;;;;5032999;28;20672;-71
2023/04/20 07:16:52;;;;;;;3.90;3.50;;;9.70;99.90;;;;;;5033995;28;20242;-73
2023/04/20 07:19:17;;;;;;;4.23;3.80;;;9.80;99.90;;;;;;5034130;28;20191;-72
2023/04/20 07:21:43;;;;;;;6.90;3.87;;;9.80;99.90;;;;;;5050865;28;20459;-72
2023/04/20 07:24:08;;;;;;;8.33;4.17;;;9.80;99.90;;;;;;5052669;28;20647;-72
2023/04/20 07:26:34;;;;;;;7.40;4.17;;;9.70;99.90;;;;;;5054030;28;20167;-71
2023/04/20 07:28:59;;;;;;;5.50;3.83;;;9.70;99.90;;;;;;5053709;28;20174;-72
2023/04/20 07:31:25;;;;;;;4.03;3.33;;;9.70;99.90;;;;;;5052691;28;20174;-72
2023/04/20 07:33:50;;;;;;;11.90;5.30;;;9.70;99.90;;;;;;5052858;28;20229;-72
2023/04/20 07:36:16;;;;;;;7.10;5.30;;;9.70;99.90;;;;;;5053675;28;20183;-72
2023/04/20 07:38:41;;;;;;;5.37;4.50;;;9.60;99.90;;;;;;5053737;28;20159;-71
2023/04/20 07:41:09;;;;;;;3.40;3.10;;;9.50;99.90;;;;;;5053667;28;20198;-72
2023/04/20 07:43:35;;;;;;;4.30;3.90;;;9.50;99.90;;;;;;5052427;28;20524;-72
2023/04/20 07:46:00;;;;;;;6.23;3.90;;;9.50;99.90;;;;;;5052349;28;20436;-72
2023/04/20 07:48:26;;;;;;;4.50;3.60;;;9.40;99.90;;;;;;5052063;28;20174;-71
2023/04/20 07:50:51;;;;;;;4.20;3.80;;;9.50;99.90;;;;;;5053433;28;20244;-72
2023/04/20 07:53:17;;;;;;;3.73;3.40;;;9.50;99.90;;;;;;5052260;28;20167;-73
2023/04/20 07:55:42;;;;;;;5.13;3.30;;;9.70;99.90;;;;;;5052161;28;20187;-71
2023/04/20 07:58:08;;;;;;;4.57;3.70;;;9.80;99.90;;;;;;5052225;28;20594;-71
2023/04/20 08:00:33;;;;;;;3.53;3.23;;;10.00;99.90;;;;;;5051976;28;20244;-71
2023/04/20 08:02:59;;;;;;;3.40;3.10;;;10.10;99.90;;;;;;5052070;28;20168;-73
2023/04/20 08:05:25;;;;;;;3.40;3.10;;;10.00;99.90;;;;;;5053136;28;20183;-71
2023/04/20 08:07:50;;;;;;;3.77;3.30;;;10.10;99.90;;;;;;5052932;28;20166;-72
2023/04/20 08:10:16;;;;;;;3.90;3.50;;;10.10;99.90;;;;;;5051859;28;20175;-72
2023/04/20 08:12:41;;;;;;;3.53;3.23;;;10.10;99.90;;;;;;5051788;28;20186;-73
2023/04/20 08:15:08;;;;;;;3.70;3.37;;;10.20;99.90;;;;;;5053008;28;20194;-72
2023/04/20 08:17:33;;;;;;;3.43;3.10;;;10.30;99.90;;;;;;5052510;28;20537;-72
2023/04/20 08:19:59;;;;;;;4.07;3.13;;;10.30;99.90;;;;;;5052779;28;20447;-72
2023/04/20 08:22:28;;;;;;;2.77;2.50;;;10.30;99.90;;;;;;5051953;28;20171;-72
2023/04/20 08:24:55;;;;;;;4.30;3.00;;;10.30;99.90;;;;;;5052842;28;20182;-72
2023/04/20 08:27:20;;;;;;;3.87;3.53;;;10.30;99.90;;;;;;5052751;28;20765;-72
2023/04/20 08:29:46;;;;;;;2.90;2.70;;;10.20;99.90;;;;;;5051461;28;20492;-71
2023/04/20 08:32:12;;;;;;;2.70;2.50;;;10.20;99.90;;;;;;5052627;28;20553;-71
2023/04/20 08:34:38;;;;;;;4.53;2.50;;;10.20;99.90;;;;;;5051294;28;20195;-72
2023/04/20 08:37:04;;;;;;;3.03;2.23;;;10.20;99.90;;;;;;5052649;28;20417;-71
2023/04/20 08:39:29;;;;;;;2.60;2.40;;;10.20;99.90;;;;;;5051301;28;20198;-71
2023/04/20 08:41:56;;;;;;;3.00;2.77;;;10.30;99.90;;;;;;5052623;28;20187;-71
2023/04/20 08:44:22;;;;;;;2.97;2.10;;;10.30;99.90;;;;;;5052465;28;20186;-71
2023/04/20 08:46:48;;;;;;;2.43;2.23;;;10.30;99.90;;;;;;5051084;28;20409;-71
2023/04/20 08:49:16;;;;;;;2.80;2.60;;;10.20;99.90;;;;;;5052234;28;20412;-71
2023/04/20 08:51:43;;;;;;;3.27;2.50;;;10.20;99.90;;;;;;5052402;28;20413;-71
2023/04/20 08:54:10;;;;;;;3.87;2.70;;;10.20;99.90;;;;;;5052259;28;20405;-72
2023/04/20 08:56:41;;;;;;;3.07;2.70;;;10.10;99.90;;;;;;5050982;28;20443;-71
2023/04/20 08:59:10;;;;;;;2.80;2.43;;;10.10;99.90;;;;;;5050657;28;20459;-71
2023/04/20 09:01:37;;;;;;;3.73;2.80;;;10.10;99.90;;;;;;5052230;28;20405;-71
2023/04/20 09:04:18;;;;;;;3.00;2.70;;;10.10;99.90;;;;;;5051310;28;20419;-71
2023/04/20 09:06:51;;;;;;;2.40;2.20;;;10.10;99.90;;;;;;5051159;28;20462;-72
2023/04/20 09:09:21;;;;;;;2.83;2.63;;;10.20;99.90;;;;;;5052216;28;20412;-71
2023/04/20 09:11:47;;;;;;;3.00;2.50;;;10.40;99.90;;;;;;5050850;28;20416;-72
2023/04/20 09:14:14;;;;;;;3.00;2.43;;;10.70;99.90;;;;;;5050527;28;20441;-71
2023/04/20 09:16:59;;;;;;;5.70;2.70;;;10.90;99.90;;;;;;5052018;28;20420;-71
2023/04/20 09:19:25;;;;;;;3.53;3.13;;;11.30;99.90;;;;;;5052085;28;20448;-71
2023/04/20 09:21:53;;;;;;;3.07;2.83;;;11.80;99.90;;;;;;5050658;28;20412;-73
2023/04/20 09:24:21;;;;;;;2.80;2.57;;;12.10;99.90;;;;;;5050737;28;20405;-71
2023/04/20 09:26:47;;;;;;;4.17;2.93;;;12.30;99.90;;;;;;5050583;28;20417;-71
2023/04/20 09:29:21;;;;;;;3.87;3.40;;;12.20;99.90;;;;;;5051700;28;20463;-71
2023/04/20 09:31:47;;;;;;;3.43;2.43;;;12.20;99.90;;;;;;5050665;28;20499;-71
2023/04/20 09:34:13;;;;;;;5.03;3.10;;;12.10;99.90;;;;;;5051380;28;20409;-71
2023/04/20 09:36:41;;;;;;;3.17;2.93;;;12.10;99.90;;;;;;5051853;28;20827;-71
2023/04/20 09:39:17;;;;;;;4.70;3.60;;;12.30;99.90;;;;;;5051422;28;20405;-71
2023/04/20 09:41:44;;;;;;;2.77;2.57;;;12.30;99.90;;;;;;5051839;28;20409;-71
2023/04/20 09:44:11;;;;;;;4.03;3.60;;;12.20;99.90;;;;;;5051614;28;20413;-72
2023/04/20 09:46:39;;;;;;;2.83;2.60;;;12.10;99.90;;;;;;5051723;28;20455;-71
2023/04/20 09:49:07;;;;;;;2.87;2.67;;;12.00;99.90;;;;;;5050176;28;20925;-71
2023/04/20 09:51:37;;;;;;;3.37;3.03;;;11.80;99.90;;;;;;5051712;28;20763;-72
2023/04/20 09:54:05;;;;;;;2.80;2.60;;;11.60;99.90;;;;;;5051869;28;20797;-72
2023/04/20 09:56:33;;;;;;;3.93;3.30;;;11.40;99.90;;;;;;5051690;28;20409;-72
2023/04/20 09:58:59;;;;;;;2.97;2.77;;;11.30;99.90;;;;;;5051092;28;20437;-72
2023/04/20 10:01:26;;;;;;;3.20;2.90;;;11.10;99.90;;;;;;5050377;28;20401;-72
2023/04/20 10:03:56;;;;;;;2.43;2.20;;;10.80;99.90;;;;;;5051642;28;20401;-71
2023/04/20 10:06:22;;;;;;;2.10;1.83;;;10.20;99.90;;;;;;5051425;28;20413;-71
2023/04/20 10:08:50;;;;;;;2.57;2.33;;;9.70;99.90;;;;;;5051181;28;20901;-72
2023/04/20 10:11:40;;;;;;;2.83;2.63;;;9.60;99.90;;;;;;5051605;28;20441;-71
2023/04/20 10:14:17;;;;;;;2.40;2.03;;;9.50;99.90;;;;;;5051162;28;20421;-70
2023/04/20 10:16:43;;;;;;;2.17;1.60;;;9.40;99.90;;;;;;5051370;28;20527;-71
2023/04/20 10:19:09;;;;;;;2.43;1.93;;;9.40;99.90;;;;;;5049857;28;20790;-72
2023/04/20 10:21:46;;;;;;;2.40;2.03;;;9.50;99.90;;;;;;5051454;28;20401;-71
2023/04/20 10:24:12;;;;;;;1.77;1.67;;;9.90;99.90;;;;;;5049968;28;20179;-72
2023/04/20 10:26:39;;;;;;;2.37;2.17;;;10.50;99.90;;;;;;5051367;28;20424;-72
2023/04/20 10:29:08;;;;;;;1.70;1.60;;;11.20;99.90;;;;;;5049823;28;20710;-72
2023/04/20 10:31:40;;;;;;;1.30;1.20;;;11.70;99.90;;;;;;5051579;28;20743;-71
2023/04/20 10:34:07;;;;;;;1.17;0.93;;;12.00;99.90;;;;;;5051406;28;20774;-72
2023/04/20 10:36:38;;;;;;;0.97;0.73;;;12.30;99.90;;;;;;5051261;28;20458;-71
2023/04/20 10:39:18;;;;;;;3.00;0.70;;;12.60;99.90;;;;;;5050955;28;20755;-72
2023/04/20 10:41:52;;;;;;;1.17;1.03;;;12.80;99.90;;;;;;5051246;28;20398;-72
2023/04/20 10:44:17;;;;;;;1.00;0.90;;;13.50;99.90;;;;;;5051116;28;20402;-72
2023/04/20 10:46:48;;;;;;;0.90;0.80;;;14.30;99.90;;;;;;5054211;28;20766;-71
2023/04/20 10:49:13;;;;;;;1.33;1.10;;;14.20;99.90;;;;;;5054595;28;20732;-73
2023/04/20 10:51:49;;;;;;;1.10;1.00;;;14.10;99.90;;;;;;5054707;28;20444;-71
2023/04/20 10:54:15;;;;;;;0.87;0.73;;;14.00;99.90;;;;;;5054628;28;20192;-71
2023/04/20 10:56:41;;;;;;;1.00;0.80;;;14.00;99.90;;;;;;5053290;28;20408;-72
2023/04/20 10:59:10;;;;;;;1.80;0.80;;;14.30;99.90;;;;;;5052923;28;20417;-71
2023/04/20 11:01:35;;;;;;;1.20;1.03;;;15.00;99.90;;;;;;5054499;28;20434;-71
2023/04/20 11:04:01;;;;;;;1.10;0.90;;;15.40;99.90;;;;;;5053138;28;20448;-72
2023/04/20 11:06:27;;;;;;;1.40;1.30;;;16.70;99.90;;;;;;5054486;28;20167;-71
2023/04/20 11:08:53;;;;;;;1.33;1.20;;;17.60;97.90;;;;;;5054195;28;20193;-72
2023/04/20 11:11:24;;;;;;;1.10;1.00;;;18.80;88.20;;;;;;5054288;28;20818;-72
2023/04/20 11:13:50;;;;;;;1.20;0.90;;;18.30;72.70;;;;;;5053072;28;20523;-71
2023/04/20 11:16:17;;;;;;;1.33;0.90;;;18.10;74.00;;;;;;5054229;28;20789;-72
2023/04/20 11:18:54;;;;;;;1.20;1.00;;;17.60;73.40;;;;;;5053893;28;20401;-72
2023/04/20 11:21:20;;;;;;;0.93;0.80;;;16.70;73.20;;;;;;5054056;28;20865;-72
2023/04/20 11:23:47;;;;;;;1.40;1.10;;;15.80;77.30;;;;;;5054112;28;20406;-71
2023/04/20 11:26:13;;;;;;;3.00;1.87;;;15.00;82.50;;;;;;5053900;28;20429;-72
2023/04/20 11:28:50;;;;;;;1.23;0.93;;;14.20;90.30;;;;;;5053733;28;20499;-72
2023/04/20 11:31:17;;;;;;;0.90;0.80;;;13.30;96.70;;;;;;5053774;28;20198;-71
2023/04/20 11:33:43;;;;;;;0.90;0.70;;;13.10;99.90;;;;;;5053868;28;20401;-73
2023/04/20 11:36:21;;;;;;;1.10;0.93;;;13.80;99.90;;;;;;5053861;28;20969;-72
2023/04/20 11:38:47;;;;;;;1.00;0.80;;;15.30;99.90;;;;;;5052324;28;20190;-73
2023/04/20 11:41:12;;;;;;;1.50;1.10;;;15.80;98.40;;;;;;5053344;28;20843;-71
2023/04/20 11:43:38;;;;;;;2.43;1.10;;;15.80;97.10;;;;;;5053771;28;20674;-71
2023/04/20 11:46:13;;;;;;;1.13;1.03;;;15.90;95.90;;;;;;5053539;28;20273;-72
2023/04/20 11:48:38;;;;;;;1.40;1.20;;;16.90;94.50;;;;;;5053399;28;20242;-72
2023/04/20 11:51:04;;;;;;;2.13;1.60;;;17.80;83.80;;;;;;5053624;28;20882;-72
2023/04/20 11:53:29;;;;;;;1.57;1.43;;;18.10;71.80;;;;;;5053622;28;20220;-72
2023/04/20 11:55:55;;;;;;;1.50;1.40;;;18.10;68.30;;;;;;5051523;28;20672;-71
2023/04/20 11:58:21;;;;;;;1.83;1.60;;;17.50;63.30;;;;;;5053180;28;20178;-72
2023/04/20 12:00:46;;;;;;;2.20;2.00;;;17.20;66.00;;;;;;5053346;28;20257;-71
2023/04/20 12:03:12;;;;;;;2.33;1.80;;;19.10;71.00;;;;;;5053302;28;20200;-72
2023/04/20 12:05:37;;;;;;;2.33;1.40;;;20.40;59.80;;;;;;5052187;28;20189;-72
2023/04/20 12:08:03;;;;;;;1.47;1.37;;;19.40;53.90;;;;;;5053044;28;20171;-72
2023/04/20 12:10:29;;;;;;;1.57;1.47;;;18.40;56.70;;;;;;5051928;28;20225;-72
2023/04/20 12:12:55;;;;;;;3.40;1.43;;;17.50;58.30;;;;;;5051808;28;20198;-72
2023/04/20 12:15:21;;;;;;;1.43;1.33;;;16.50;59.80;;;;;;5052961;28;20182;-72
2023/04/20 12:17:46;;;;;;;2.03;1.53;;;16.00;61.30;;;;;;5052740;28;20958;-72
2023/04/20 12:20:13;;;;;;;1.43;1.27;;;16.00;67.20;;;;;;5052920;28;20260;-72
2023/04/20 12:22:38;;;;;;;1.57;1.20;;;16.70;67.60;;;;;;5053267;28;20632;-73
2023/04/20 12:25:05;;;;;;;2.10;1.70;;;18.90;69.20;;;;;;5052905;28;20414;-72
2023/04/20 12:27:30;;;;;;;1.80;1.70;;;20.30;60.60;;;;;;5051307;28;20167;-69
2023/04/20 12:29:56;;;;;;;2.30;2.10;;;21.80;54.50;;;;;;5052728;28;20409;-71
2023/04/20 12:32:21;;;;;;;2.00;1.80;;;22.60;51.10;;;;;;5052885;28;20174;-70
2023/04/20 12:34:47;;;;;;;2.97;1.73;;;25.00;51.30;;;;;;5051450;28;20190;-72
2023/04/20 12:37:13;;;;;;;1.90;1.80;;;27.70;45.80;;;;;;5052372;28;20163;-70
2023/04/20 12:39:39;;;;;;;3.57;2.50;;;29.50;40.30;;;;;;5051336;28;20191;-70
2023/04/20 12:42:04;;;;;;;3.07;2.77;;;28.80;36.20;;;;;;5052629;28;20418;-70
2023/04/20 12:44:30;;;;;;;3.63;3.00;;;27.00;35.90;;;;;;5051173;28;20679;-69
2023/04/20 12:46:55;;;;;;;3.10;2.53;;;24.90;36.80;;;;;;5052253;28;20675;-70
2023/04/20 12:49:21;;;;;;;2.60;2.40;;;23.60;38.30;;;;;;5052563;28;20246;-70